Time;durP1;ratioP1;P1;durP2;ratioP2;P2;SDS_P1;SDS_P2;PMS_P1;PMS_P2;Temp;Humidity;BMP_temperature;BMP_pressure;BME280_temperature;BME280_humidity;BME280_pressure;Samples;Min_cycle;Max_cycle;Signal;HPM_P1;HPM_P2
2022/05/07 00:00:30;;;;;;;17.40;12.00;;;;;;;9.29;71.90;101069.91;88288;1272;81026;-59
2022/05/07 00:02:45;;;;;;;13.60;11.50;;;;;;;9.26;71.86;101076.02;88245;1273;97788;-57
2022/05/07 00:04:55;;;;;;;14.60;12.10;;;;;;;9.14;72.02;101079.96;87976;1274;409760;-58
2022/05/07 00:07:04;;;;;;;14.10;11.50;;;;;;;9.09;71.97;101079.52;88285;1273;93920;-74
2022/05/07 00:09:18;;;;;;;16.80;11.70;;;;;;;9.02;72.06;101078.75;88201;1274;83023;-72
2022/05/07 00:11:27;;;;;;;14.70;11.60;;;;;;;9.02;72.19;101080.40;88275;1273;80646;-74
2022/05/07 00:13:40;;;;;;;16.80;12.40;;;;;;;9.01;72.23;101079.99;88292;1274;98068;-73
2022/05/07 00:18:19;;;;;;;19.90;13.20;;;;;;;8.89;72.34;101076.54;88256;1274;94639;-59
2022/05/07 00:20:32;;;;;;;18.80;14.60;;;;;;;8.84;72.49;101079.05;88286;1273;78788;-59
2022/05/07 00:22:46;;;;;;;22.20;14.80;;;;;;;8.81;72.55;101083.16;88291;1273;80062;-59
2022/05/07 00:24:58;;;;;;;20.40;15.80;;;;;;;8.78;72.38;101084.69;88321;1272;97812;-58
2022/05/07 00:27:08;;;;;;;20.60;15.30;;;;;;;8.66;72.36;101080.44;88263;1274;87796;-57
2022/05/07 00:29:20;;;;;;;25.30;17.20;;;;;;;8.56;72.41;101081.30;88185;1274;94045;-61
2022/05/07 00:31:30;;;;;;;28.00;19.90;;;;;;;8.47;72.29;101082.96;88272;1273;82271;-59
2022/05/07 00:33:42;;;;;;;27.70;22.40;;;;;;;8.44;72.63;101083.45;88294;1273;82737;-57
2022/05/07 00:35:54;;;;;;;26.70;19.00;;;;;;;8.39;72.73;101079.40;88275;1273;99823;-73
2022/05/07 00:38:06;;;;;;;27.60;19.90;;;;;;;8.31;72.63;101077.13;88325;1273;88207;-74
2022/05/07 00:40:16;;;;;;;25.70;18.90;;;;;;;8.25;72.78;101074.61;88307;1274;94974;-67
2022/05/07 00:42:24;;;;;;;25.80;18.70;;;;;;;8.17;72.98;101073.16;88276;1273;80186;-74
2022/05/07 00:44:34;;;;;;;21.80;17.60;;;;;;;8.10;73.11;101071.01;88294;1273;80607;-73
2022/05/07 00:46:49;;;;;;;23.90;16.60;;;;;;;8.05;73.13;101070.96;88184;1274;98861;-77
2022/05/07 00:49:01;;;;;;;18.60;15.20;;;;;;;8.04;73.19;101068.02;88166;1274;88769;-73
2022/05/07 00:53:47;;;;;;;19.00;14.40;;;;;;;7.98;73.37;101065.62;88113;1274;80451;-58
2022/05/07 00:55:57;;;;;;;17.40;13.00;;;;;;;7.98;73.56;101066.68;88277;1273;83730;-74
2022/05/07 00:58:06;;;;;;;19.10;12.00;;;;;;;7.97;73.54;101062.66;88270;1273;99130;-75
2022/05/07 01:00:19;;;;;;;16.60;12.20;;;;;;;7.95;73.67;101060.25;88297;1273;87366;-68
2022/05/07 01:02:32;;;;;;;16.50;12.00;;;;;;;7.89;73.79;101061.52;88277;1273;94722;-59
2022/05/07 01:04:44;;;;;;;14.90;11.80;;;;;;;7.84;73.91;101059.73;88286;1273;78571;-57
2022/05/07 01:06:54;;;;;;;13.90;11.40;;;;;;;7.79;73.68;101055.95;88277;1273;81656;-73
2022/05/07 01:09:04;;;;;;;15.60;11.10;;;;;;;7.72;74.03;101058.95;88280;1273;99644;-74
2022/05/07 01:11:14;;;;;;;15.10;10.30;;;;;;;7.64;73.92;101059.08;88309;1273;87023;-60
2022/05/07 01:13:23;;;;;;;14.60;10.20;;;;;;;7.57;74.24;101054.55;88274;1273;95243;-57
2022/05/07 01:15:42;;;;;;;15.00;10.70;;;;;;;7.57;74.36;101052.46;88276;1273;82724;-73
2022/05/07 01:17:54;;;;;;;13.60;10.00;;;;;;;7.57;74.45;101057.23;88278;1273;82164;-73
2022/05/07 01:20:08;;;;;;;11.60;9.60;;;;;;;7.56;74.47;101053.83;88286;1273;97300;-74
2022/05/07 01:22:23;;;;;;;13.80;10.60;;;;;;;7.56;74.65;101053.77;88304;1273;86736;-73
2022/05/07 01:24:33;;;;;;;12.80;9.90;;;;;;;7.56;74.83;101051.64;88270;1274;95599;-72
2022/05/07 01:26:42;;;;;;;11.90;9.10;;;;;;;7.57;74.65;101052.83;88302;1273;82712;-73
2022/05/07 01:28:51;;;;;;;12.30;9.50;;;;;;;7.57;74.76;101052.04;88302;1273;80437;-73
2022/05/07 01:31:00;;;;;;;13.20;9.10;;;;;;;7.56;74.79;101053.63;88307;1273;99465;-73
2022/05/07 01:33:10;;;;;;;15.70;9.80;;;;;;;7.56;75.01;101051.45;88285;1272;88453;-73
2022/05/07 01:35:20;;;;;;;14.50;10.20;;;;;;;7.54;75.34;101051.16;88284;1273;95300;-58
2022/05/07 01:37:29;;;;;;;11.20;9.40;;;;;;;7.56;75.53;101048.39;88273;1273;80916;-58
2022/05/07 01:39:38;;;;;;;10.90;9.40;;;;;;;7.60;75.53;101051.08;88285;1274;82878;-57
2022/05/07 01:41:50;;;;;;;11.90;9.70;;;;;;;7.63;75.77;101045.67;88283;1273;97579;-57
2022/05/07 01:43:59;;;;;;;12.20;9.50;;;;;;;7.67;75.74;101043.85;88268;1273;86691;-57
2022/05/07 01:48:09;;;;;;;14.20;10.20;;;;;;;7.72;75.94;101040.36;88181;1274;96202;-73
2022/05/07 01:48:41;;;;;;;14.00;10.30;;;;;;;7.71;76.05;101038.40;88268;1273;82543;-73
2022/05/07 01:50:50;;;;;;;12.90;9.70;;;;;;;7.72;76.07;101037.41;88303;1273;80749;-57
2022/05/07 01:52:59;;;;;;;14.50;10.40;;;;;;;7.81;76.10;101039.09;88282;1273;98046;-59
2022/05/07 01:55:10;;;;;;;11.70;10.10;;;;;;;7.84;75.95;101036.80;88315;1273;88253;-59
2022/05/07 01:57:19;;;;;;;14.60;10.80;;;;;;;7.87;76.05;101035.43;88276;1273;95317;-59
2022/05/07 01:59:28;;;;;;;15.00;11.40;;;;;;;7.90;76.02;101034.89;88272;1273;78371;-57
2022/05/07 02:01:40;;;;;;;15.70;11.30;;;;;;;7.91;75.73;101031.23;88317;1273;81803;-73
2022/05/07 02:03:51;;;;;;;13.30;11.40;;;;;;;7.89;76.03;101027.27;88281;1273;96870;-73
2022/05/07 02:06:03;;;;;;;12.60;11.10;;;;;;;7.86;76.13;101027.77;88291;1274;88974;-57
2022/05/07 02:08:14;;;;;;;14.90;11.70;;;;;;;7.84;76.08;101026.95;88255;1274;93400;-57
2022/05/07 02:10:27;;;;;;;15.10;11.40;;;;;;;7.83;76.15;101032.42;88278;1273;78969;-57
2022/05/07 02:12:35;;;;;;;14.70;12.40;;;;;;;7.84;76.07;101032.89;88274;1274;81952;-60
2022/05/07 02:14:47;;;;;;;15.80;12.80;;;;;;;7.83;75.96;101032.99;88310;1273;99832;-57
2022/05/07 02:16:56;;;;;;;14.50;11.10;;;;;;;7.82;76.03;101031.10;88275;1273;88863;-57
2022/05/07 02:19:06;;;;;;;14.70;12.50;;;;;;;7.78;76.14;101031.20;88249;1273;95547;-58
2022/05/07 02:21:14;;;;;;;18.70;13.60;;;;;;;7.73;76.01;101024.67;88268;1273;80621;-73
2022/05/07 02:23:26;;;;;;;16.70;13.10;;;;;;;7.71;76.10;101025.90;88263;1273;82447;-74
2022/05/07 02:25:39;;;;;;;18.50;13.80;;;;;;;7.70;75.91;101023.38;88267;1273;98697;-58
2022/05/07 02:27:47;;;;;;;17.20;14.50;;;;;;;7.66;75.79;101022.08;88279;1273;86228;-57
2022/05/07 02:29:56;;;;;;;18.30;14.80;;;;;;;7.68;76.01;101020.29;88260;1273;95873;-57
2022/05/07 02:32:13;;;;;;;21.30;15.40;;;;;;;7.67;75.99;101025.02;88267;1273;80140;-75
2022/05/07 02:34:23;;;;;;;20.10;14.80;;;;;;;7.63;75.84;101022.41;88299;1274;81812;-75
2022/05/07 02:36:33;;;;;;;18.80;14.10;;;;;;;7.60;75.90;101021.70;88286;1273;97122;-57
2022/05/07 02:38:42;;;;;;;18.40;15.00;;;;;;;7.60;75.92;101020.92;88284;1273;88563;-58
2022/05/07 02:43:20;;;;;;;20.10;14.30;;;;;;;7.61;76.04;101030.52;88280;1273;81688;-57
2022/05/07 02:45:30;;;;;;;19.70;15.30;;;;;;;7.57;75.81;101033.79;88288;1274;81178;-74
2022/05/07 02:47:40;;;;;;;17.20;14.80;;;;;;;7.57;75.90;101038.63;88297;1273;99100;-73
2022/05/07 02:49:51;;;;;;;17.90;15.00;;;;;;;7.55;75.95;101037.08;88284;1273;89912;-73
2022/05/07 02:52:00;;;;;;;20.60;14.50;;;;;;;7.43;75.74;101038.95;88283;1273;95114;-73
2022/05/07 02:54:10;;;;;;;19.20;14.80;;;;;;;7.33;75.75;101038.57;88268;1274;80078;-73
2022/05/07 02:56:20;;;;;;;21.60;15.30;;;;;;;7.32;75.82;101037.81;88223;1273;83614;-57
2022/05/07 02:58:29;;;;;;;18.50;13.90;;;;;;;7.30;75.89;101040.17;88158;1276;97842;-56
2022/05/07 03:00:37;;;;;;;17.80;14.60;;;;;;;7.27;75.80;101042.39;88250;1273;88922;-74
2022/05/07 03:02:47;;;;;;;17.90;14.10;;;;;;;7.25;75.89;101044.44;88220;1273;95631;-74
2022/05/07 03:04:58;;;;;;;18.20;14.70;;;;;;;7.21;75.95;101045.92;88276;1273;81676;-73
2022/05/07 03:07:08;;;;;;;19.40;13.40;;;;;;;7.16;75.96;101042.63;88320;1273;81192;-73
2022/05/07 03:09:17;;;;;;;16.50;13.40;;;;;;;7.08;76.26;101040.74;88282;1273;98141;-73
2022/05/07 03:11:28;;;;;;;18.60;13.20;;;;;;;7.09;76.10;101038.81;88277;1273;87982;-72
2022/05/07 03:13:38;;;;;;;18.20;14.00;;;;;;;7.15;76.48;101036.92;88309;1274;94463;-73
2022/05/07 03:15:47;;;;;;;17.00;13.60;;;;;;;7.19;76.42;101036.06;88236;1273;82256;-58
2022/05/07 03:17:59;;;;;;;17.70;13.60;;;;;;;7.18;76.43;101040.61;88278;1273;83819;-57
2022/05/07 03:20:16;;;;;;;20.30;13.50;;;;;;;7.22;76.54;101041.65;88303;1273;96943;-58
2022/05/07 03:22:25;;;;;;;17.90;13.30;;;;;;;7.21;76.67;101041.90;88302;1273;87733;-75
2022/05/07 03:24:37;;;;;;;18.40;12.70;;;;;;;7.18;76.75;101043.98;88291;1274;95618;-75
2022/05/07 03:26:49;;;;;;;17.70;13.90;;;;;;;7.21;76.92;101047.47;88267;1273;79013;-73
2022/05/07 03:28:59;;;;;;;17.00;13.80;;;;;;;7.26;76.81;101056.80;88286;1274;82834;-73
2022/05/07 03:31:13;;;;;;;16.90;12.80;;;;;;;7.35;76.82;101057.95;88278;1274;99559;-73
2022/05/07 03:33:22;;;;;;;15.60;12.50;;;;;;;7.47;76.91;101061.88;88284;1273;89654;-75
2022/05/07 03:35:31;;;;;;;19.50;14.70;;;;;;;7.50;76.84;101062.15;88303;1273;93612;-57
2022/05/07 03:37:40;;;;;;;16.80;14.50;;;;;;;7.47;76.91;101063.46;88260;1274;79500;-57
2022/05/07 03:39:56;;;;;;;16.20;13.40;;;;;;;7.57;77.05;101061.77;88290;1274;79413;-58
2022/05/07 03:42:06;;;;;;;19.60;13.90;;;;;;;8.43;77.03;101061.27;88292;1274;99184;-75
2022/05/07 03:44:15;;;;;;;17.70;15.10;;;;;;;9.43;76.45;101064.07;88282;1271;88916;-74
2022/05/07 03:46:25;;;;;;;22.40;14.60;;;;;;;10.23;75.44;101059.35;88251;1273;93139;-61
2022/05/07 03:48:38;;;;;;;17.00;13.40;;;;;;;11.00;74.40;101057.85;88269;1273;77880;-59
2022/05/07 03:50:47;;;;;;;17.30;14.80;;;;;;;11.83;74.10;101060.15;88228;1273;83882;-56
2022/05/07 03:55:25;;;;;;;16.90;14.00;;;;;;;13.30;71.28;101066.73;88221;1273;86787;-57
2022/05/07 03:57:37;;;;;;;16.20;14.20;;;;;;;13.84;70.27;101063.23;88232;1273;94207;-57
2022/05/07 03:59:49;;;;;;;18.00;15.30;;;;;;;14.42;69.05;101059.64;88218;1273;80459;-58
2022/05/07 04:01:58;;;;;;;19.60;14.80;;;;;;;14.95;67.88;101060.52;88222;1273;83856;-74
2022/05/07 04:04:11;;;;;;;16.10;14.40;;;;;;;15.41;67.54;101059.68;88190;1275;98304;-74
2022/05/07 04:06:20;;;;;;;18.20;15.00;;;;;;;15.94;66.33;101062.20;88233;1273;87249;-57
2022/05/07 04:08:29;;;;;;;19.30;15.60;;;;;;;16.22;64.97;101057.36;88227;1274;93785;-57
2022/05/07 04:10:38;;;;;;;15.90;14.30;;;;;;;15.66;63.86;101063.02;88206;1274;78381;-57
2022/05/07 04:12:52;;;;;;;17.20;14.80;;;;;;;14.74;64.20;101062.41;88285;1273;82625;-58
2022/05/07 04:15:06;;;;;;;15.40;13.70;;;;;;;13.69;64.87;101064.94;88267;1273;99112;-58
2022/05/07 04:17:16;;;;;;;15.60;13.70;;;;;;;13.07;65.45;101071.34;88225;1274;86608;-75
2022/05/07 04:19:28;;;;;;;18.70;14.20;;;;;;;12.66;65.84;101072.85;88180;1274;94757;-75
2022/05/07 04:21:38;;;;;;;16.40;14.60;;;;;;;12.30;66.14;101072.09;88166;1276;77924;-75
2022/05/07 04:23:47;;;;;;;16.30;14.70;;;;;;;12.03;66.55;101073.05;88261;1273;81829;-75
2022/05/07 04:25:57;;;;;;;20.70;15.50;;;;;;;11.98;66.67;101069.30;88226;1273;97839;-74
2022/05/07 04:28:06;;;;;;;18.10;15.90;;;;;;;11.84;66.90;101073.13;88221;1274;89193;-74
2022/05/07 04:30:17;;;;;;;18.10;16.20;;;;;;;11.78;67.15;101075.91;88210;1274;94761;-69
2022/05/07 04:32:29;;;;;;;19.70;17.30;;;;;;;11.77;67.40;101076.60;88221;1275;81494;-57
2022/05/07 04:34:41;;;;;;;21.20;16.90;;;;;;;11.85;67.56;101079.63;88199;1274;81587;-55
2022/05/07 04:36:53;;;;;;;22.40;19.50;;;;;;;11.92;67.88;101074.33;88214;1273;97248;-74
2022/05/07 04:39:02;;;;;;;23.30;20.50;;;;;;;12.26;67.90;101078.35;88212;1273;88366;-76
2022/05/07 04:41:11;;;;;;;21.20;18.50;;;;;;;13.58;68.00;101082.51;88217;1273;95929;-58
2022/05/07 04:43:21;;;;;;;22.20;18.10;;;;;;;15.53;66.83;101074.72;88238;1273;78615;-58
2022/05/07 04:45:30;;;;;;;20.90;17.40;;;;;;;17.40;65.04;101076.02;88188;1274;83419;-58
2022/05/07 04:47:42;;;;;;;25.90;18.60;;;;;;;18.86;63.54;101071.19;88181;1274;99098;-59
2022/05/07 04:49:53;;;;;;;21.90;17.90;;;;;;;20.17;62.02;101069.45;88202;1274;89708;-60
2022/05/07 04:52:06;;;;;;;19.90;17.70;;;;;;;21.19;59.56;101074.36;88175;1274;93787;-59
2022/05/07 04:54:18;;;;;;;20.90;17.60;;;;;;;22.01;58.16;101078.54;88183;1274;79426;-59
2022/05/07 04:56:29;;;;;;;23.50;18.30;;;;;;;22.64;56.64;101079.17;88249;1272;80972;-75
2022/05/07 04:58:41;;;;;;;19.70;17.10;;;;;;;23.24;54.96;101078.23;88214;1273;100092;-75
2022/05/07 05:00:53;;;;;;;20.50;16.60;;;;;;;23.81;53.96;101079.88;88250;1273;88154;-58
2022/05/07 05:03:03;;;;;;;19.00;16.80;;;;;;;24.24;52.64;101080.33;88140;1276;95752;-59
2022/05/07 05:05:13;;;;;;;20.80;17.30;;;;;;;24.61;51.54;101083.00;88169;1274;79962;-59
2022/05/07 05:07:25;;;;;;;17.80;15.90;;;;;;;25.19;50.44;101083.61;88231;1274;80818;-60
2022/05/07 05:09:37;;;;;;;18.50;16.60;;;;;;;25.81;48.85;101083.59;88245;1273;99693;-58
2022/05/07 05:11:48;;;;;;;19.40;16.90;;;;;;;26.25;47.67;101086.46;88174;1274;88947;-59
2022/05/07 05:13:57;;;;;;;17.00;15.20;;;;;;;26.67;46.07;101082.52;88169;1276;94435;-58
2022/05/07 05:16:09;;;;;;;18.20;16.40;;;;;;;26.96;45.07;101083.60;88243;1273;81179;-77
2022/05/07 05:18:18;;;;;;;17.40;15.50;;;;;;;27.06;44.48;101082.91;88269;1273;80711;-77
2022/05/07 05:20:31;;;;;;;18.60;14.30;;;;;;;27.33;43.38;101086.09;88260;1273;99426;-59
2022/05/07 05:22:46;;;;;;;17.70;15.60;;;;;;;27.53;43.01;101090.18;88259;1273;88744;-58
2022/05/07 05:25:00;;;;;;;16.20;14.60;;;;;;;27.89;42.58;101089.16;88193;1274;96164;-59
2022/05/07 05:27:13;;;;;;;16.20;14.50;;;;;;;28.41;41.75;101092.30;88258;1273;79347;-77
2022/05/07 05:29:23;;;;;;;15.50;14.10;;;;;;;28.80;40.88;101094.61;88226;1274;83457;-77
2022/05/07 05:31:32;;;;;;;15.00;13.50;;;;;;;28.86;39.80;101092.52;88205;1274;97096;-77
2022/05/07 05:33:42;;;;;;;15.10;13.30;;;;;;;28.95;39.09;101090.05;88214;1274;88040;-75
2022/05/07 05:35:55;;;;;;;14.50;12.40;;;;;;;28.82;38.65;101092.20;88276;1273;96275;-75
2022/05/07 05:38:13;;;;;;;12.60;11.30;;;;;;;28.78;37.97;101094.73;88279;1273;77395;-75
2022/05/07 05:40:25;;;;;;;13.00;11.80;;;;;;;29.07;37.28;101092.70;88284;1273;81890;-58
2022/05/07 05:42:34;;;;;;;;;;;;;;;29.35;37.10;101092.23;88312;1273;99068;-58
2022/05/07 05:44:46;;;;;;;15.30;10.50;;;;;;;29.32;36.70;101090.15;88268;1273;86767;-60
2022/05/07 05:46:56;;;;;;;12.00;10.30;;;;;;;29.66;36.20;101092.66;88241;1273;94090;-59
2022/05/07 05:49:09;;;;;;;12.70;9.90;;;;;;;29.94;35.95;101094.48;88248;1273;78734;-59
2022/05/07 05:51:20;;;;;;;10.30;9.20;;;;;;;30.23;35.27;101092.45;88264;1273;81747;-80
2022/05/07 05:53:31;;;;;;;11.50;10.00;;;;;;;30.39;34.94;101091.86;88248;1273;100017;-76
2022/05/07 05:55:40;;;;;;;12.60;9.00;;;;;;;30.91;34.41;101088.59;88240;1273;88042;-59
2022/05/07 05:57:52;;;;;;;9.90;8.50;;;;;;;31.46;34.27;101088.27;88177;1276;93944;-59
2022/05/07 06:00:07;;;;;;;10.80;8.50;;;;;;;32.22;33.05;101090.21;88202;1273;80383;-59
2022/05/07 06:02:21;;;;;;;10.40;7.90;;;;;;;32.10;32.92;101091.45;88246;1273;83143;-59
2022/05/07 06:04:33;;;;;;;11.20;8.50;;;;;;;32.30;32.46;101091.19;88260;1273;98461;-59
2022/05/07 06:06:41;;;;;;;;;;;;;;;32.39;31.80;101093.92;88242;1274;89520;-77
2022/05/07 06:08:51;;;;;;;9.00;8.00;;;;;;;32.42;31.79;101093.52;88204;1274;94515;-77
2022/05/07 06:11:03;;;;;;;9.10;6.70;;;;;;;32.59;31.40;101092.98;88207;1274;79250;-59
2022/05/07 06:13:14;;;;;;;7.60;6.70;;;;;;;33.09;30.67;101091.91;88199;1273;83619;-58
2022/05/07 06:15:31;;;;;;;6.90;6.30;;;;;;;33.49;30.19;101088.29;88196;1276;99726;-61
2022/05/07 06:17:40;;;;;;;7.40;5.90;;;;;;;33.79;29.98;101095.05;88217;1274;86548;-58
2022/05/07 06:19:55;;;;;;;6.40;5.80;;;;;;;33.99;29.86;101091.55;88202;1273;94932;-59
2022/05/07 06:22:06;;;;;;;6.00;5.30;;;;;;;34.03;29.18;101091.33;88237;1273;77887;-58
2022/05/07 06:29:09;;;;;;;5.90;5.20;;;;;;;34.08;28.47;101097.84;88218;1276;88700;-77
2022/05/07 06:31:18;;;;;;;5.20;4.30;;;;;;;34.04;28.32;101096.29;88209;1273;95489;-59
2022/05/07 06:33:28;;;;;;;5.80;4.30;;;;;;;34.49;27.78;101103.91;88193;1275;78321;-63
2022/05/07 06:35:37;;;;;;;4.50;4.10;;;;;;;34.67;27.15;101102.52;88237;1273;82450;-78
2022/05/07 06:37:48;;;;;;;4.70;3.70;;;;;;;34.89;26.83;101099.55;88240;1273;100184;-77
2022/05/07 06:39:58;;;;;;;4.20;3.80;;;;;;;34.53;26.71;101096.06;88276;1273;87221;-77
2022/05/07 06:42:11;;;;;;;3.90;3.50;;;;;;;34.62;26.63;101099.67;88164;1276;94721;-60
2022/05/07 06:44:21;;;;;;;4.00;3.60;;;;;;;34.82;26.14;101102.83;88240;1273;79223;-60
2022/05/07 06:46:32;;;;;;;3.60;3.00;;;;;;;35.08;25.79;101097.98;88300;1273;83071;-76
2022/05/07 06:48:41;;;;;;;5.50;3.40;;;;;;;34.92;25.58;101096.95;88079;1274;99945;-75
2022/05/07 06:50:51;;;;;;;4.10;3.40;;;;;;;35.49;25.67;101097.80;88193;1276;88391;-77
2022/05/07 06:53:03;;;;;;;4.20;2.70;;;;;;;35.73;24.94;101098.59;88200;1276;94345;-78
2022/05/07 06:55:17;;;;;;;4.10;3.00;;;;;;;34.78;24.75;101101.43;88086;1279;78611;-72
2022/05/07 06:57:29;;;;;;;4.10;3.20;;;;;;;33.48;24.95;101102.64;88142;1278;81304;-60
2022/05/07 06:59:37;;;;;;;4.10;3.30;;;;;;;33.13;25.38;101102.45;88154;1276;97834;-59
2022/05/07 07:01:55;;;;;;;4.30;2.90;;;;;;;33.71;25.56;101101.62;88146;1276;88247;-69
2022/05/07 07:04:05;;;;;;;3.20;2.90;;;;;;;34.44;25.50;101100.44;88161;1276;95179;-72
2022/05/07 07:06:14;;;;;;;6.60;2.70;;;;;;;35.10;24.94;101099.32;88170;1276;79713;-72
2022/05/07 07:08:24;;;;;;;3.60;2.50;;;;;;;35.60;24.34;101098.56;88150;1278;83156;-73
2022/05/07 07:10:33;;;;;;;3.80;3.10;;;;;;;36.11;24.38;101097.40;88157;1276;98666;-71
2022/05/07 07:12:44;;;;;;;3.40;2.90;;;;;;;36.26;23.86;101096.06;88171;1276;88338;-69
2022/05/07 07:14:57;;;;;;;4.70;3.30;;;;;;;36.40;23.47;101097.95;88099;1278;95465;-74
2022/05/07 07:17:07;;;;;;;3.30;3.00;;;;;;;36.42;23.15;101096.24;88150;1276;80244;-60
2022/05/07 07:19:17;;;;;;;2.40;1.80;;;;;;;36.29;23.35;101097.78;88175;1276;81456;-60
2022/05/07 07:21:27;;;;;;;3.60;2.20;;;;;;;36.16;23.14;101102.34;88101;1278;99868;-58
2022/05/07 07:23:37;;;;;;;3.70;2.00;;;;;;;36.09;22.85;101100.63;88125;1276;87616;-58
2022/05/07 07:25:47;;;;;;;3.00;2.20;;;;;;;36.09;22.56;101101.48;88033;1278;95148;-58
2022/05/07 07:28:00;;;;;;;3.20;2.00;;;;;;;36.28;22.72;101100.31;88170;1276;78495;-75
2022/05/07 07:30:12;;;;;;;2.50;2.20;;;;;;;36.34;22.95;101101.83;88201;1276;82637;-74
2022/05/07 07:32:22;;;;;;;2.80;2.30;;;;;;;36.70;22.63;101103.17;88214;1276;99329;-74
2022/05/07 07:34:32;;;;;;;2.50;1.90;;;;;;;36.75;22.28;101101.75;88214;1276;88618;-74
2022/05/07 07:36:44;;;;;;;2.30;2.10;;;;;;;36.69;21.85;101101.13;88151;1278;94502;-60
2022/05/07 07:38:56;;;;;;;3.00;2.40;;;;;;;36.33;22.09;101101.96;88105;1278;79101;-57
2022/05/07 07:41:06;;;;;;;3.30;2.50;;;;;;;36.54;21.62;101102.03;88132;1276;83529;-58
2022/05/07 07:43:16;;;;;;;4.90;2.80;;;;;;;36.83;21.60;101102.20;88099;1278;98184;-59
2022/05/07 07:47:59;;;;;;;3.80;2.30;;;;;;;36.35;22.04;101100.45;88117;1276;95795;-60
2022/05/07 07:50:13;;;;;;;3.70;2.30;;;;;;;36.66;21.54;101102.89;88153;1274;80140;-59
2022/05/07 07:52:22;;;;;;;3.80;2.20;;;;;;;36.60;20.92;101101.38;88221;1274;81883;-75
2022/05/07 07:54:32;;;;;;;2.30;2.10;;;;;;;36.36;21.11;101101.37;88151;1276;99151;-75
2022/05/07 07:56:42;;;;;;;2.50;2.00;;;;;;;35.99;21.59;101099.96;88159;1276;88910;-75
2022/05/07 07:59:00;;;;;;;3.30;2.20;;;;;;;36.20;21.51;101096.08;88141;1276;95617;-72
2022/05/07 08:01:08;;;;;;;2.50;2.00;;;;;;;36.07;21.46;101096.61;88137;1276;79610;-72
2022/05/07 08:03:37;;;;;;;2.70;1.70;;;;;;;36.26;21.25;101105.70;87372;1274;1119113;-72
2022/05/07 08:05:51;;;;;;;3.70;2.00;;;;;;;36.55;20.60;101103.26;88161;1276;98203;-72
2022/05/07 08:12:56;;;;;;;3.00;2.00;;;;;;;36.61;20.52;101096.98;88176;1274;79732;-75
2022/05/07 08:15:06;;;;;;;2.30;1.90;;;;;;;36.70;20.97;101096.68;88175;1274;81910;-72
2022/05/07 08:17:15;;;;;;;3.20;1.60;;;;;;;36.70;20.44;101098.92;88184;1274;99989;-72
2022/05/07 08:19:27;;;;;;;1.90;1.40;;;;;;;36.42;20.29;101094.65;88170;1275;88135;-76
2022/05/07 08:21:40;;;;;;;2.30;1.50;;;;;;;36.41;20.82;101096.64;88154;1274;95783;-60
2022/05/07 08:23:51;;;;;;;1.70;1.50;;;;;;;36.69;20.46;101092.77;88165;1276;78698;-58
2022/05/07 08:26:02;;;;;;;3.30;1.70;;;;;;;36.39;20.49;101090.38;88127;1276;83654;-61
2022/05/07 08:28:14;;;;;;;2.50;1.40;;;;;;;36.72;20.43;101086.84;88152;1274;99992;-60
2022/05/07 08:30:24;;;;;;;2.70;1.80;;;;;;;36.98;20.62;101090.50;88171;1274;89306;-62
2022/05/07 08:32:33;;;;;;;3.10;1.70;;;;;;;36.13;20.15;101091.56;88179;1274;94909;-74
2022/05/07 08:34:43;;;;;;;3.10;1.80;;;;;;;35.01;20.86;101091.58;88186;1274;78908;-75
2022/05/07 08:36:52;;;;;;;3.40;1.80;;;;;;;35.21;20.20;101088.88;88188;1276;81954;-75
2022/05/07 08:39:02;;;;;;;2.50;1.20;;;;;;;35.40;19.76;101086.34;88197;1274;98965;-74
2022/05/07 08:41:15;;;;;;;2.40;1.50;;;;;;;34.67;20.42;101089.71;88154;1276;89224;-74
2022/05/07 08:43:24;;;;;;;2.20;1.20;;;;;;;34.44;20.81;101089.34;88212;1274;95832;-59
2022/05/07 08:45:40;;;;;;;1.40;0.80;;;;;;;33.60;21.19;101086.36;88187;1274;80341;-59
2022/05/07 08:47:53;;;;;;;2.00;1.10;;;;;;;32.64;21.70;101093.69;88130;1274;80945;-73
2022/05/07 08:50:06;;;;;;;1.30;1.10;;;;;;;32.24;22.28;101090.71;88181;1274;98674;-73
2022/05/07 08:52:15;;;;;;;2.90;0.90;;;;;;;32.71;22.43;101090.77;88216;1276;88347;-75
2022/05/07 08:54:24;;;;;;;1.20;0.90;;;;;;;33.19;22.80;101089.19;88108;1276;95108;-76
2022/05/07 08:56:33;;;;;;;2.30;0.90;;;;;;;33.75;22.05;101087.49;88197;1274;79087;-60
2022/05/07 08:58:48;;;;;;;2.10;1.00;;;;;;;34.29;21.87;101087.44;88159;1276;81407;-59
2022/05/07 09:01:01;;;;;;;2.00;0.90;;;;;;;34.36;21.60;101085.76;88142;1276;99725;-64
2022/05/07 09:03:15;;;;;;;1.60;1.10;;;;;;;34.00;21.54;101081.48;88196;1274;88658;-60
2022/05/07 09:05:34;;;;;;;2.00;0.80;;;;;;;33.41;21.33;101080.61;88160;1274;94775;-60
2022/05/07 09:07:56;;;;;;;1.50;0.80;;;;;;;33.13;21.79;101079.29;88190;1274;80548;-59
2022/05/07 09:10:12;;;;;;;2.10;0.70;;;;;;;33.23;22.09;101085.48;88151;1276;83497;-59
2022/05/07 09:12:29;;;;;;;1.40;0.70;;;;;;;32.81;21.93;101083.12;88170;1274;99478;-57
2022/05/07 09:14:42;;;;;;;1.70;0.60;;;;;;;32.60;22.39;101088.53;88178;1274;87690;-60
2022/05/07 09:16:51;;;;;;;2.90;0.80;;;;;;;32.32;22.52;101089.00;88158;1276;94389;-58
2022/05/07 09:19:05;;;;;;;2.60;1.00;;;;;;;31.94;22.73;101087.71;88143;1276;78246;-59
2022/05/07 09:21:17;;;;;;;1.90;1.50;;;;;;;31.23;22.90;101091.02;88179;1275;81096;-61
2022/05/07 09:23:29;;;;;;;1.60;0.90;;;;;;;31.04;23.19;101086.05;88178;1274;99238;-58
2022/05/07 09:25:51;;;;;;;1.50;0.80;;;;;;;30.79;23.21;101085.55;88182;1274;88224;-59
2022/05/07 09:28:01;;;;;;;2.30;0.80;;;;;;;30.33;23.47;101085.96;88130;1276;94533;-58
2022/05/07 09:30:14;;;;;;;2.40;0.90;;;;;;;29.85;23.95;101087.13;88151;1276;79880;-58
2022/05/07 09:32:34;;;;;;;;;;;;;;;29.74;24.54;101087.52;88227;1274;82932;-73
2022/05/07 09:37:23;;;;;;;1.70;1.00;;;;;;;28.85;24.94;101085.81;88150;1276;89527;-74
2022/05/07 09:39:40;;;;;;;3.10;1.10;;;;;;;28.22;24.95;101082.95;88163;1274;95729;-75
2022/05/07 09:41:58;;;;;;;1.10;1.00;;;;;;;28.26;25.80;101082.59;88036;1279;79530;-59
2022/05/07 09:44:09;;;;;;;1.90;1.20;;;;;;;28.44;26.05;101077.16;88189;1274;81235;-57
2022/05/07 09:46:19;;;;;;;4.60;0.90;;;;;;;28.26;25.72;101079.27;88107;1276;98903;-58
2022/05/07 09:48:29;;;;;;;3.20;0.90;;;;;;;27.95;26.07;101076.18;88198;1275;88228;-74
2022/05/07 09:50:46;;;;;;;1.60;0.90;;;;;;;27.67;26.23;101076.14;88159;1274;93360;-76
2022/05/07 09:57:58;;;;;;;1.20;0.80;;;;;;;27.49;26.86;101067.39;88156;1276;98470;-58
2022/05/07 10:00:13;;;;;;;1.70;1.10;;;;;;;27.03;26.99;101060.40;88182;1274;88944;-59
2022/05/07 10:02:49;;;;;;;2.00;1.20;;;;;;;27.09;27.52;101057.15;88184;1274;94286;-74
2022/05/07 10:05:31;;;;;;;2.00;1.10;;;;;;;26.98;28.16;101056.31;88178;1274;78271;-69
2022/05/07 10:08:18;;;;;;;2.30;1.60;;;;;;;26.90;27.88;101054.00;88155;1277;80915;-57
2022/05/07 10:10:31;;;;;;;2.60;1.20;;;;;;;26.87;28.52;101050.89;88083;1277;97810;-58
2022/05/07 10:12:48;;;;;;;2.10;1.50;;;;;;;26.69;28.37;101053.48;88145;1276;88035;-57
2022/05/07 10:15:07;;;;;;;5.30;3.90;;;;;;;26.08;28.32;101059.89;88163;1274;93720;-58
2022/05/07 10:17:23;;;;;;;3.90;3.30;;;;;;;25.67;28.92;101058.81;88165;1274;79984;-57
2022/05/07 10:19:46;;;;;;;2.80;1.70;;;;;;;25.89;29.44;101056.09;88208;1274;82513;-57
2022/05/07 10:21:57;;;;;;;;;;;;;;;26.20;29.52;101052.28;88233;1274;97225;-76
2022/05/07 10:24:09;;;;;;;2.50;1.10;;;;;;;26.16;29.43;101049.84;88213;1274;87540;-76
2022/05/07 10:26:24;;;;;;;1.80;1.00;;;;;;;26.32;29.47;101047.73;88135;1277;94046;-75
2022/05/07 10:28:43;;;;;;;3.50;1.40;;;;;;;26.54;29.27;101040.27;88156;1277;78083;-74
2022/05/07 10:30:55;;;;;;;1.70;0.90;;;;;;;26.40;29.08;101044.84;88187;1276;83323;-76
2022/05/07 10:33:06;;;;;;;3.30;1.00;;;;;;;25.84;29.07;101047.55;88171;1274;98685;-70
2022/05/07 10:35:16;;;;;;;2.60;1.70;;;;;;;25.42;29.32;101051.86;88135;1276;88725;-70
2022/05/07 10:37:25;;;;;;;2.40;1.10;;;;;;;25.30;29.64;101055.80;88173;1274;94296;-76